createdAt,value
2022-11-21T00:01:39.294Z,21.97
2022-11-21T00:04:08.385Z,20.63
2022-11-21T00:06:37.411Z,21.13
2022-11-21T00:09:06.435Z,17.40
2022-11-21T00:11:35.544Z,13.70
2022-11-21T00:14:04.708Z,15.63
2022-11-21T00:16:35.165Z,13.73
2022-11-21T00:19:05.441Z,12.53
2022-11-21T00:21:34.603Z,14.03
2022-11-21T00:24:03.674Z,14.00
2022-11-21T00:26:32.692Z,19.33
2022-11-21T00:29:01.714Z,11.40
2022-11-21T00:31:31.309Z,19.10
2022-11-21T00:34:01.703Z,12.80
2022-11-21T00:36:30.736Z,11.03
2022-11-21T00:38:59.797Z,12.27
2022-11-21T00:41:28.796Z,14.00
2022-11-21T00:43:57.790Z,14.73
2022-11-21T00:46:26.857Z,11.40
2022-11-21T00:48:55.884Z,11.70
2022-11-21T00:51:26.363Z,17.40
2022-11-21T00:53:55.398Z,16.87
2022-11-21T00:56:24.464Z,13.40
2022-11-21T00:58:53.502Z,19.53
2022-11-21T01:01:22.668Z,17.43
2022-11-21T01:03:51.766Z,16.63
2022-11-21T01:06:20.816Z,12.73
2022-11-21T01:08:51.250Z,10.73
2022-11-21T01:11:22.023Z,12.40
2022-11-21T01:13:54.128Z,8.37
2022-11-21T01:16:24.828Z,10.07
2022-11-21T01:18:54.295Z,8.97
2022-11-21T01:21:25.528Z,12.23
2022-11-21T01:23:56.351Z,21.17
2022-11-21T01:26:27.638Z,18.70
2022-11-21T01:28:58.064Z,23.20
2022-11-21T01:31:29.406Z,20.07
2022-11-21T01:34:00.030Z,12.60
2022-11-21T01:36:30.768Z,8.37
2022-11-21T01:39:02.584Z,12.50
2022-11-21T01:41:33.644Z,12.17
2022-11-21T01:44:03.265Z,10.37
2022-11-21T01:46:32.320Z,8.20
2022-11-21T01:49:07.719Z,11.10
2022-11-21T01:51:41.634Z,10.63
2022-11-21T01:54:15.668Z,14.87
2022-11-21T01:56:50.384Z,12.10
2022-11-21T01:59:24.106Z,11.97
2022-11-21T02:01:55.109Z,8.70
2022-11-21T02:04:27.453Z,11.53
2022-11-21T02:06:56.820Z,15.17
2022-11-21T02:09:27.580Z,19.30
2022-11-21T02:11:59.573Z,12.87
2022-11-21T02:14:30.177Z,11.60
2022-11-21T02:17:02.898Z,11.60
2022-11-21T02:19:39.429Z,7.30
2022-11-21T02:22:16.227Z,9.37
2022-11-21T02:24:50.382Z,8.03
2022-11-21T02:27:20.814Z,9.27
2022-11-21T02:29:49.902Z,9.83
2022-11-21T02:32:23.772Z,14.40
2022-11-21T02:34:52.844Z,7.47
2022-11-21T02:37:21.993Z,7.13
2022-11-21T02:39:51.625Z,12.90
2022-11-21T02:42:29.576Z,7.33
2022-11-21T02:45:06.356Z,9.27
2022-11-21T02:47:36.984Z,25.33
2022-11-21T02:50:14.267Z,6.40
2022-11-21T02:52:43.675Z,6.73
2022-11-21T02:55:13.494Z,7.50
2022-11-21T02:57:44.201Z,10.80
2022-11-21T03:00:14.029Z,8.00
2022-11-21T03:02:43.344Z,8.63
2022-11-21T03:05:15.180Z,9.23
2022-11-21T03:07:44.670Z,8.23
2022-11-21T03:10:14.007Z,6.53
2022-11-21T03:12:45.403Z,9.70
2022-11-21T03:15:16.303Z,10.80
2022-11-21T03:17:49.142Z,8.00
2022-11-21T03:20:18.187Z,10.57
2022-11-21T03:22:47.232Z,12.77
2022-11-21T03:25:16.383Z,11.13
2022-11-21T03:27:46.796Z,9.07
2022-11-21T03:30:16.514Z,8.20
2022-11-21T03:32:45.621Z,9.87
2022-11-21T03:35:14.987Z,7.30
2022-11-21T03:37:44.088Z,8.10
2022-11-21T03:40:13.877Z,8.60
2022-11-21T03:42:42.895Z,9.77
2022-11-21T03:45:13.376Z,10.27
2022-11-21T03:47:43.300Z,9.23
2022-11-21T03:50:15.036Z,9.23
2022-11-21T03:52:44.053Z,8.67
2022-11-21T03:55:13.128Z,5.53
2022-11-21T03:57:42.167Z,7.37
2022-11-21T04:00:14.565Z,10.33
2022-11-21T04:02:43.626Z,8.97
2022-11-21T04:05:12.692Z,7.07
2022-11-21T04:07:41.771Z,7.87
2022-11-21T04:10:11.461Z,12.30
2022-11-21T04:12:40.512Z,8.67
2022-11-21T04:15:13.690Z,11.23
2022-11-21T04:17:44.504Z,7.07
2022-11-21T04:20:13.739Z,12.77
2022-11-21T04:22:43.396Z,11.43
2022-11-21T04:25:13.697Z,8.47
2022-11-21T04:27:42.729Z,5.73
2022-11-21T04:30:12.784Z,11.07
2022-11-21T04:32:44.074Z,16.57
2022-11-21T04:35:13.101Z,9.67
2022-11-21T04:37:42.151Z,11.67
2022-11-21T04:40:12.440Z,10.97
2022-11-21T04:42:43.444Z,9.73
2022-11-21T04:45:13.793Z,10.03
2022-11-21T04:47:45.809Z,9.30
2022-11-21T04:50:16.964Z,9.20
2022-11-21T04:52:51.040Z,8.63
2022-11-21T04:55:20.530Z,8.60
2022-11-21T04:57:49.715Z,10.57
2022-11-21T05:00:24.240Z,8.60
2022-11-21T05:02:55.017Z,8.90
2022-11-21T05:05:24.081Z,10.90
2022-11-21T05:07:53.097Z,8.80
2022-11-21T05:10:22.187Z,11.83
2022-11-21T05:13:15.983Z,9.93
2022-11-21T05:15:45.019Z,9.97
2022-11-21T05:18:15.411Z,12.43
2022-11-21T05:20:44.470Z,18.03
2022-11-21T05:23:13.499Z,7.80
2022-11-21T05:25:42.528Z,10.07
2022-11-21T05:28:11.581Z,10.20
2022-11-21T05:30:40.662Z,11.20
2022-11-21T05:33:09.647Z,11.93
2022-11-21T05:35:43.447Z,15.40
2022-11-21T05:38:13.018Z,12.07
2022-11-21T05:40:42.273Z,11.87
2022-11-21T05:43:30.109Z,11.93
2022-11-21T05:45:59.325Z,11.40
2022-11-21T05:48:28.439Z,9.93
2022-11-21T05:50:58.863Z,13.00
2022-11-21T05:53:28.724Z,9.33
2022-11-21T05:56:02.838Z,10.23
2022-11-21T05:58:32.943Z,9.27
2022-11-21T06:01:03.775Z,10.00
2022-11-21T06:03:36.167Z,10.47
2022-11-21T06:06:11.950Z,12.10
2022-11-21T06:08:43.512Z,11.07
2022-11-21T06:11:15.098Z,10.30
2022-11-21T06:13:44.964Z,9.27
2022-11-21T06:16:15.852Z,15.90
2022-11-21T06:18:46.388Z,11.37
2022-11-21T06:21:18.915Z,11.43
2022-11-21T06:23:48.898Z,11.90
2022-11-21T06:26:20.494Z,12.67
2022-11-21T06:28:49.769Z,12.53
2022-11-21T06:31:20.649Z,12.57
2022-11-21T06:33:53.976Z,9.77
2022-11-21T06:36:24.613Z,13.70
2022-11-21T06:38:55.590Z,10.73
2022-11-21T06:41:26.655Z,11.77
2022-11-21T06:43:55.752Z,10.87
2022-11-21T06:46:24.866Z,10.73
2022-11-21T06:48:54.882Z,12.97
2022-11-21T06:51:26.277Z,14.00
2022-11-21T06:53:57.377Z,15.57
2022-11-21T06:56:27.313Z,14.83
2022-11-21T06:58:56.951Z,12.63
2022-11-21T07:01:26.430Z,17.40
2022-11-21T07:03:56.158Z,11.97
2022-11-21T07:06:27.173Z,14.47
2022-11-21T07:09:25.198Z,15.00
2022-11-21T07:11:45.766Z,11.00
2022-11-21T07:14:13.839Z,11.53
2022-11-21T07:16:42.865Z,10.90
2022-11-21T07:19:12.074Z,13.23
2022-11-21T07:21:43.061Z,17.40
2022-11-21T07:24:12.426Z,16.30
2022-11-21T07:26:41.483Z,13.80
2022-11-21T07:29:10.752Z,12.43
2022-11-21T07:31:40.082Z,14.63
2022-11-21T07:34:09.141Z,12.57
2022-11-21T07:36:38.245Z,11.43
2022-11-21T07:39:08.716Z,18.10
2022-11-21T07:41:37.805Z,16.20
2022-11-21T07:44:07.012Z,15.17
2022-11-21T07:46:36.074Z,12.17
2022-11-21T07:49:05.192Z,11.33
2022-11-21T07:51:34.897Z,15.63
2022-11-21T07:54:04.246Z,16.33
2022-11-21T07:56:34.701Z,19.83
2022-11-21T07:59:03.698Z,15.10
2022-11-21T08:01:33.933Z,16.40
2022-11-21T08:04:03.062Z,15.97
2022-11-21T08:06:32.040Z,14.50
2022-11-21T08:09:01.096Z,16.03
2022-11-21T08:11:30.901Z,17.00
2022-11-21T08:14:01.636Z,19.27
2022-11-21T08:16:32.828Z,26.17
2022-11-21T08:19:02.014Z,22.63
2022-11-21T08:21:31.376Z,20.83
2022-11-21T08:24:00.459Z,18.20
2022-11-21T08:26:29.481Z,32.17
2022-11-21T08:29:00.031Z,18.90
2022-11-21T08:31:30.669Z,28.57
2022-11-21T08:33:59.832Z,26.13
2022-11-21T08:36:28.894Z,29.03
2022-11-21T08:38:58.076Z,31.93
2022-11-21T08:41:44.917Z,29.07
2022-11-21T08:44:14.492Z,29.03
2022-11-21T08:46:44.973Z,25.70
2022-11-21T08:49:14.097Z,26.93
2022-11-21T08:51:43.142Z,22.63
2022-11-21T08:54:12.265Z,25.63
2022-11-21T08:56:41.255Z,29.07
2022-11-21T08:59:10.247Z,28.90
2022-11-21T09:01:39.665Z,28.63
2022-11-21T09:04:10.320Z,30.20
2022-11-21T09:06:39.992Z,24.93
2022-11-21T09:09:09.443Z,28.63
2022-11-21T09:11:38.689Z,23.93
2022-11-21T09:14:25.146Z,25.10
2022-11-21T09:17:11.474Z,25.43
2022-11-21T09:19:41.958Z,26.27
2022-11-21T09:22:11.010Z,25.10
2022-11-21T09:24:40.212Z,26.80
2022-11-21T09:27:09.493Z,26.40
2022-11-21T09:29:38.573Z,23.27
2022-11-21T09:32:07.648Z,24.30
2022-11-21T09:34:36.709Z,25.13
2022-11-21T09:37:07.189Z,28.03
2022-11-21T09:39:36.297Z,19.80
2022-11-21T09:42:27.279Z,21.43
2022-11-21T09:45:14.325Z,20.33
2022-11-21T09:47:46.572Z,17.83
2022-11-21T09:50:27.135Z,19.97
2022-11-21T09:53:01.985Z,21.80
2022-11-21T09:55:39.415Z,27.90
2022-11-21T09:58:17.099Z,30.53
2022-11-21T10:00:46.196Z,29.03
2022-11-21T10:03:19.419Z,27.27
2022-11-21T10:05:56.013Z,26.43
2022-11-21T10:08:41.936Z,27.70
2022-11-21T10:11:21.591Z,22.30
2022-11-21T10:14:07.985Z,22.60
2022-11-21T10:16:44.987Z,18.40
2022-11-21T10:19:43.195Z,21.87
2022-11-21T10:22:40.003Z,18.60
2022-11-21T10:25:15.604Z,17.57
2022-11-21T10:27:51.887Z,14.00
2022-11-21T10:30:22.624Z,21.63
2022-11-21T10:32:55.435Z,18.30
2022-11-21T10:35:26.542Z,16.13
2022-11-21T10:37:58.533Z,14.30
2022-11-21T10:40:36.965Z,14.60
2022-11-21T10:43:28.803Z,16.57
2022-11-21T10:45:58.072Z,22.13
2022-11-21T10:48:27.136Z,18.23
2022-11-21T10:51:12.255Z,13.47
2022-11-21T10:54:04.573Z,14.30
2022-11-21T10:56:38.249Z,8.30
2022-11-21T10:59:25.686Z,11.87
2022-11-21T11:01:59.455Z,12.00
2022-11-21T11:04:33.503Z,12.93
2022-11-21T11:07:23.420Z,11.53
2022-11-21T11:09:53.533Z,14.03
2022-11-21T11:12:46.111Z,9.10
2022-11-21T11:15:20.716Z,9.53
2022-11-21T11:17:55.676Z,11.63
2022-11-21T11:20:36.952Z,10.77
2022-11-21T11:23:27.334Z,11.07
2022-11-21T11:25:58.359Z,12.30
2022-11-21T11:28:37.064Z,9.40
2022-11-21T11:31:06.282Z,9.07
2022-11-21T11:33:37.242Z,10.53
2022-11-21T11:36:20.948Z,10.57
2022-11-21T11:38:55.945Z,9.57
2022-11-21T11:42:00.909Z,8.90
2022-11-21T11:45:01.251Z,8.20
2022-11-21T11:47:35.312Z,9.47
2022-11-21T11:50:15.354Z,7.70
2022-11-21T11:52:54.965Z,6.43
2022-11-21T11:55:31.693Z,8.00
2022-11-21T11:58:04.100Z,7.97
2022-11-21T12:00:43.192Z,8.27
2022-11-21T12:03:19.634Z,19.33
2022-11-21T12:06:04.761Z,6.33
2022-11-21T12:08:47.484Z,7.27
2022-11-21T12:11:48.927Z,8.83
2022-11-21T12:14:51.520Z,6.13
2022-11-21T12:17:28.539Z,5.93
2022-11-21T12:20:00.593Z,6.87
2022-11-21T12:22:29.744Z,7.23
2022-11-21T12:24:58.824Z,6.27
2022-11-21T12:27:32.164Z,11.20
2022-11-21T12:30:52.336Z,5.40
2022-11-21T12:33:24.919Z,4.53
2022-11-21T12:36:24.002Z,5.37
2022-11-21T12:39:17.371Z,4.17
2022-11-21T12:42:13.687Z,6.93
2022-11-21T12:45:01.893Z,4.57
2022-11-21T12:48:08.610Z,3.73
2022-11-21T12:51:06.249Z,4.30
2022-11-21T12:53:59.769Z,4.37
2022-11-21T12:56:38.864Z,4.17
2022-11-21T12:59:13.296Z,5.27
2022-11-21T13:01:51.610Z,3.80
2022-11-21T13:04:25.632Z,5.27
2022-11-21T13:06:58.680Z,5.63
2022-11-21T13:09:33.142Z,7.17
2022-11-21T13:12:07.881Z,4.87
2022-11-21T13:14:48.286Z,8.17
2022-11-21T13:17:39.424Z,3.47
2022-11-21T13:20:20.203Z,4.97
2022-11-21T13:22:56.195Z,6.40
2022-11-21T13:25:47.490Z,4.37
2022-11-21T13:28:34.511Z,4.33
2022-11-21T13:31:26.903Z,5.40
2022-11-21T13:33:56.258Z,6.73
2022-11-21T13:36:42.992Z,3.03
2022-11-21T13:39:38.741Z,5.70
2022-11-21T13:42:32.346Z,8.97
2022-11-21T13:45:43.479Z,9.17
2022-11-21T13:48:39.239Z,10.03
2022-11-21T13:51:37.546Z,10.73
2022-11-21T13:54:33.603Z,8.47
2022-11-21T13:57:15.227Z,10.70
2022-11-21T14:00:01.512Z,9.90
2022-11-21T14:02:48.672Z,8.17
2022-11-21T14:05:57.846Z,10.47
2022-11-21T14:08:29.006Z,9.50
2022-11-21T14:10:58.826Z,12.17
2022-11-21T14:13:32.265Z,8.83
2022-11-21T14:16:25.092Z,17.57
2022-11-21T14:18:55.271Z,9.93
2022-11-21T14:21:27.991Z,9.80
2022-11-21T14:23:59.780Z,12.57
2022-11-21T14:26:32.777Z,12.00
2022-11-21T14:29:22.756Z,10.87
2022-11-21T14:31:52.267Z,9.63
2022-11-21T14:34:29.446Z,9.67
2022-11-21T14:37:01.512Z,10.07
2022-11-21T14:39:39.846Z,10.57
2022-11-21T14:42:15.813Z,11.67
2022-11-21T14:44:46.272Z,10.73
2022-11-21T14:47:23.424Z,9.17
2022-11-21T14:50:02.280Z,8.57
2022-11-21T14:52:35.937Z,28.70
2022-11-21T14:55:29.155Z,10.50
2022-11-21T14:57:56.832Z,10.40
2022-11-21T15:00:59.235Z,11.53
2022-11-21T15:03:21.963Z,13.87
2022-11-21T15:06:05.910Z,11.13
2022-11-21T15:11:35.946Z,17.90
2022-11-21T15:14:16.012Z,10.10
2022-11-21T15:16:49.470Z,10.00
2022-11-21T15:19:27.505Z,9.40
2022-11-21T15:21:58.780Z,9.30
2022-11-21T15:24:37.380Z,12.40
2022-11-21T15:27:29.235Z,12.63
2022-11-21T15:30:29.116Z,20.33
2022-11-21T15:33:08.690Z,10.47
2022-11-21T15:35:44.388Z,10.87
2022-11-21T15:38:23.315Z,10.57
2022-11-21T15:41:04.598Z,11.03
2022-11-21T15:43:42.532Z,10.90
2022-11-21T15:46:17.630Z,10.40
2022-11-21T15:48:49.165Z,11.57
2022-11-21T15:51:27.231Z,10.83
2022-11-21T15:54:11.993Z,9.70
2022-11-21T15:56:41.353Z,9.73
2022-11-21T15:59:10.804Z,14.30
2022-11-21T16:01:40.116Z,10.93
2022-11-21T16:04:12.219Z,10.27
2022-11-21T16:06:41.790Z,8.37
2022-11-21T16:09:10.919Z,10.00
2022-11-21T16:11:40.525Z,15.90
2022-11-21T16:14:10.184Z,12.13
2022-11-21T16:16:43.187Z,7.97
2022-11-21T16:19:15.384Z,8.73
2022-11-21T16:21:44.705Z,13.50
2022-11-21T16:24:13.842Z,21.40
2022-11-21T16:26:42.893Z,19.17
2022-11-21T16:29:12.601Z,12.67
2022-11-21T16:31:41.650Z,15.43
2022-11-21T16:34:10.694Z,12.77
2022-11-21T16:36:41.238Z,11.17
2022-11-21T16:39:16.618Z,9.67
2022-11-21T16:41:48.981Z,12.17
2022-11-21T16:44:18.629Z,12.27
2022-11-21T16:46:51.487Z,13.13
2022-11-21T16:49:20.621Z,9.53
2022-11-21T16:51:51.125Z,19.20
2022-11-21T16:54:20.220Z,11.87
2022-11-21T16:56:49.295Z,12.37
2022-11-21T16:59:18.377Z,15.90
2022-11-21T17:01:47.533Z,12.00
2022-11-21T17:04:17.671Z,14.27
2022-11-21T17:06:48.867Z,10.87
2022-11-21T17:09:19.336Z,12.30
2022-11-21T17:11:48.430Z,10.27
2022-11-21T17:14:17.455Z,7.60
2022-11-21T17:16:48.753Z,12.23
2022-11-21T17:19:17.928Z,10.93
2022-11-21T17:21:47.036Z,10.43
2022-11-21T17:24:16.767Z,6.53
2022-11-21T17:26:47.200Z,9.93
2022-11-21T17:29:16.308Z,7.03
2022-11-21T17:31:45.331Z,14.03
2022-11-21T17:34:15.410Z,17.07
2022-11-21T17:36:44.459Z,12.40
2022-11-21T17:39:13.703Z,11.80
2022-11-21T17:41:42.755Z,7.93
2022-11-21T17:44:16.200Z,9.20
2022-11-21T17:46:45.324Z,9.73
2022-11-21T17:49:14.504Z,15.73
2022-11-21T17:51:43.892Z,13.17
2022-11-21T17:54:13.014Z,11.33
2022-11-21T17:56:46.615Z,13.07
2022-11-21T17:59:19.707Z,14.53
2022-11-21T18:01:48.888Z,15.53
2022-11-21T18:04:18.391Z,10.80
2022-11-21T18:06:47.497Z,11.67
2022-11-21T18:09:17.509Z,10.43
2022-11-21T18:11:46.757Z,13.53
2022-11-21T18:14:16.588Z,11.47
2022-11-21T18:16:52.719Z,12.73
2022-11-21T18:19:24.100Z,16.70
2022-11-21T18:21:53.267Z,11.13
2022-11-21T18:24:22.436Z,17.50
2022-11-21T18:26:51.795Z,15.50
2022-11-21T18:29:38.239Z,15.43
2022-11-21T18:32:08.842Z,18.97
2022-11-21T18:34:37.892Z,16.63
2022-11-21T18:37:07.045Z,20.53
2022-11-21T18:39:36.156Z,24.37
2022-11-21T18:42:05.232Z,16.20
2022-11-21T18:44:34.283Z,15.27
2022-11-21T18:47:19.403Z,16.43
2022-11-21T18:49:50.758Z,19.13
2022-11-21T18:52:19.825Z,17.10
2022-11-21T18:54:48.889Z,22.87
2022-11-21T18:57:18.084Z,18.20
2022-11-21T18:59:47.231Z,21.80
2022-11-21T19:02:16.468Z,21.70
2022-11-21T19:04:45.518Z,25.30
2022-11-21T19:07:16.043Z,25.77
2022-11-21T19:09:46.448Z,22.63
2022-11-21T19:12:16.390Z,16.10
2022-11-21T19:14:45.507Z,25.67
2022-11-21T19:17:14.962Z,23.70
2022-11-21T19:19:44.371Z,25.10
2022-11-21T19:22:15.055Z,20.60
2022-11-21T19:24:44.161Z,26.27
2022-11-21T19:27:15.576Z,22.07
2022-11-21T19:29:45.012Z,24.80
2022-11-21T19:32:14.620Z,21.90
2022-11-21T19:34:44.017Z,19.57
2022-11-21T19:37:13.109Z,20.17
2022-11-21T19:39:46.789Z,21.37
2022-11-21T19:42:15.827Z,23.13
2022-11-21T19:44:45.071Z,20.80
2022-11-21T19:47:14.484Z,18.73
2022-11-21T19:49:44.171Z,18.20
2022-11-21T19:52:13.633Z,23.47
2022-11-21T19:54:47.399Z,18.90
2022-11-21T19:57:18.090Z,20.30
2022-11-21T19:59:47.562Z,18.67
2022-11-21T20:02:19.050Z,18.43
2022-11-21T20:04:48.538Z,16.60
2022-11-21T20:07:18.076Z,20.40
2022-11-21T20:09:48.270Z,20.03
2022-11-21T20:12:21.576Z,15.77
2022-11-21T20:14:50.663Z,22.43
2022-11-21T20:17:19.956Z,17.20
2022-11-21T20:19:51.412Z,15.00
2022-11-21T20:22:20.496Z,18.90
2022-11-21T20:24:51.913Z,17.13
2022-11-21T20:27:22.878Z,20.70
2022-11-21T20:29:52.040Z,21.23
2022-11-21T20:32:21.115Z,24.37
2022-11-21T20:34:51.400Z,18.67
2022-11-21T20:37:20.687Z,13.90
2022-11-21T20:39:49.746Z,21.60
2022-11-21T20:42:18.871Z,14.87
2022-11-21T20:47:38.730Z,20.23
2022-11-21T20:50:08.700Z,16.60
2022-11-21T20:55:27.306Z,22.70
2022-11-21T20:57:56.797Z,25.37
2022-11-21T21:00:28.546Z,17.60
2022-11-21T21:02:57.574Z,17.47
2022-11-21T21:05:26.881Z,19.40
2022-11-21T21:07:56.187Z,17.00
2022-11-21T21:10:26.598Z,17.57
2022-11-21T21:12:55.973Z,25.53
2022-11-21T21:15:26.867Z,18.53
2022-11-21T21:17:56.117Z,14.77
2022-11-21T21:20:25.604Z,16.27
2022-11-21T21:22:56.376Z,15.73
2022-11-21T21:25:25.768Z,20.53
2022-11-21T21:27:56.702Z,20.17
2022-11-21T21:30:27.604Z,17.57
2022-11-21T21:32:56.665Z,18.00
2022-11-21T21:35:25.951Z,19.47
2022-11-21T21:37:55.038Z,20.53
2022-11-21T21:40:24.093Z,18.93
2022-11-21T21:42:54.484Z,19.87
2022-11-21T21:45:23.842Z,15.33
2022-11-21T21:47:54.187Z,19.93
2022-11-21T21:50:23.593Z,16.37
2022-11-21T21:52:52.635Z,15.77
2022-11-21T21:55:21.778Z,19.57
2022-11-21T21:57:52.558Z,27.60
2022-11-21T22:00:21.934Z,21.87
2022-11-21T22:02:51.056Z,14.87
2022-11-21T22:05:21.544Z,21.87
2022-11-21T22:07:50.698Z,18.03
2022-11-21T22:10:19.792Z,20.20
2022-11-21T22:12:49.506Z,20.87
2022-11-21T22:15:18.592Z,20.63
2022-11-21T22:17:48.024Z,21.50
2022-11-21T22:20:17.649Z,21.10
2022-11-21T22:22:48.063Z,21.97
2022-11-21T22:25:17.353Z,24.10
2022-11-21T22:27:46.454Z,22.40
2022-11-21T22:30:15.749Z,16.37
2022-11-21T22:32:44.877Z,15.43
2022-11-21T22:35:14.152Z,23.17
2022-11-21T22:37:43.209Z,13.93
2022-11-21T22:40:15.064Z,20.23
2022-11-21T22:42:44.124Z,21.83
2022-11-21T22:45:13.429Z,19.60
2022-11-21T22:47:47.790Z,18.40
2022-11-21T22:50:17.634Z,15.77
2022-11-21T22:52:46.722Z,23.67
2022-11-21T22:55:17.444Z,16.00
2022-11-21T22:57:46.696Z,20.03
2022-11-21T23:00:17.138Z,15.97
2022-11-21T23:02:46.188Z,16.50
2022-11-21T23:05:15.282Z,18.03
2022-11-21T23:07:44.927Z,16.87
2022-11-21T23:10:14.114Z,18.97
2022-11-21T23:12:45.846Z,17.93
2022-11-21T23:15:15.070Z,19.07
2022-11-21T23:17:47.179Z,13.57
2022-11-21T23:20:20.153Z,20.40
2022-11-21T23:22:49.259Z,19.37
2022-11-21T23:25:18.449Z,17.13
2022-11-21T23:27:48.859Z,13.57
2022-11-21T23:30:18.165Z,16.57
2022-11-21T23:32:47.569Z,18.87
2022-11-21T23:35:16.735Z,17.80
2022-11-21T23:37:45.848Z,17.93
2022-11-21T23:40:15.315Z,15.30
2022-11-21T23:42:46.060Z,21.27
2022-11-21T23:45:16.866Z,14.37
2022-11-21T23:47:46.041Z,19.77
2022-11-21T23:50:15.622Z,18.20
2022-11-21T23:52:44.868Z,20.90
2022-11-21T23:55:13.950Z,20.07
2022-11-21T23:57:43.496Z,14.73
